Time;durP1;ratioP1;P1;durP2;ratioP2;P2;SDS_P1;SDS_P2;PMS_P1;PMS_P2;Temp;Humidity;BMP_temperature;BMP_pressure;BME280_temperature;BME280_humidity;BME280_pressure;Samples;Min_cycle;Max_cycle;Signal;HPM_P1;HPM_P2
2021/11/24 00:01:59;;;;;;;17.58;16.35;;;;;;;5.18;88.10;101064.06;10541907;28;20048;-74
2021/11/24 00:07:02;;;;;;;19.05;17.55;;;;;;;5.14;88.03;101059.69;10549048;28;20040;-74
2021/11/24 00:12:04;;;;;;;18.95;17.42;;;;;;;5.17;88.12;101061.41;10549666;28;20043;-74
2021/11/24 00:17:06;;;;;;;21.23;19.35;;;;;;;5.04;89.33;101069.16;10547958;28;20481;-74
2021/11/24 00:28:55;;;;;;;21.45;19.38;;;;;;;4.95;93.20;101058.66;10549742;28;20028;-74
2021/11/24 00:33:59;;;;;;;21.30;19.55;;;;;;;4.87;93.29;101044.72;10548719;28;20409;-73
2021/11/24 00:39:01;;;;;;;18.85;17.13;;;;;;;4.88;92.79;101043.84;10530049;28;20044;-75
2021/11/24 00:44:03;;;;;;;18.10;16.50;;;;;;;4.99;92.40;101036.09;10549648;28;20135;-73
2021/11/24 00:49:06;;;;;;;17.33;15.98;;;;;;;4.99;91.75;101030.91;10531158;28;20040;-73
2021/11/24 00:54:08;;;;;;;17.30;15.90;;;;;;;5.00;91.80;101027.44;10531382;28;20032;-73
2021/11/24 00:59:10;;;;;;;16.52;15.32;;;;;;;4.98;91.54;101026.56;10548669;28;20050;-73
2021/11/24 01:04:12;;;;;;;17.60;16.20;;;;;;;5.04;90.97;101032.66;10548422;28;20044;-74
2021/11/24 01:09:14;;;;;;;16.38;15.10;;;;;;;5.10;90.73;101038.81;10549394;28;20039;-73
2021/11/24 01:14:16;;;;;;;15.27;13.98;;;;;;;5.19;89.50;101029.31;10548845;28;20413;-73
2021/11/24 01:19:18;;;;;;;17.27;15.98;;;;;;;4.98;91.32;101027.44;10547722;28;20047;-75
2021/11/24 01:24:20;;;;;;;16.50;15.27;;;;;;;4.89;91.25;101022.16;10511748;28;20572;-74
2021/11/24 01:29:22;;;;;;;15.38;14.18;;;;;;;4.89;91.70;101022.16;10546956;28;20400;-73
2021/11/24 01:34:24;;;;;;;15.93;14.63;;;;;;;4.90;90.84;101016.06;10528698;28;20532;-74
2021/11/24 01:39:26;;;;;;;15.07;13.95;;;;;;;5.18;89.54;101013.63;10547175;28;20089;-74
2021/11/24 01:44:28;;;;;;;15.60;14.30;;;;;;;5.01;89.73;101003.13;10546333;28;20051;-74
2021/11/24 01:49:31;;;;;;;15.73;14.43;;;;;;;5.04;89.51;101005.75;10549158;22;20047;-70
2021/11/24 01:54:33;;;;;;;14.48;13.35;;;;;;;5.12;88.46;101003.19;10466613;28;20070;-71
2021/11/24 01:59:35;;;;;;;16.02;14.82;;;;;;;4.79;90.60;101009.94;10500588;28;20040;-70
2021/11/24 02:04:37;;;;;;;14.95;13.65;;;;;;;4.95;90.02;100995.25;10500256;28;20051;-71
2021/11/24 02:09:39;;;;;;;16.45;15.13;;;;;;;4.79;91.25;100992.56;10482126;28;20060;-71
2021/11/24 02:14:42;;;;;;;17.77;16.38;;;;;;;4.76;92.00;101002.94;10499795;28;20071;-71
2021/11/24 02:19:45;;;;;;;17.52;16.13;;;;;;;4.88;91.04;100991.75;10481922;28;20139;-71
2021/11/24 02:24:46;;;;;;;17.27;15.88;;;;;;;5.05;91.05;100992.75;10499706;28;20068;-71
2021/11/24 02:29:48;;;;;;;16.90;15.60;;;;;;;5.04;90.27;100984.88;10498534;28;20075;-71
2021/11/24 02:34:50;;;;;;;17.30;15.95;;;;;;;4.91;90.03;100983.06;10498962;28;20048;-71
2021/11/24 02:39:51;;;;;;;18.38;16.63;;;;;;;4.81;90.71;100980.41;10481010;28;20139;-72
2021/11/24 02:44:55;;;;;;;20.80;18.10;;;;;;;4.84;90.34;100992.59;10480980;28;20131;-71
2021/11/24 02:50:01;;;;;;;19.05;17.40;;;;;;;4.86;90.92;100990.84;10481194;28;20041;-71
2021/11/24 02:55:06;;;;;;;19.45;18.00;;;;;;;5.27;89.44;100988.53;10498871;28;20107;-72
2021/11/24 03:00:18;;;;;;;22.08;20.00;;;;;;;5.10;90.70;100984.09;10481057;28;20497;-71
2021/11/24 03:05:23;;;;;;;22.00;20.10;;;;;;;4.85;92.51;100978.69;10498431;28;20041;-71
2021/11/24 03:10:32;;;;;;;20.88;19.20;;;;;;;5.00;92.26;100976.22;10480928;28;20489;-71
2021/11/24 03:15:34;;;;;;;26.75;21.88;;;;;;;4.85;93.46;100967.41;10479541;28;20517;-71
2021/11/24 03:20:36;;;;;;;22.33;20.30;;;;;;;4.94;92.21;100970.06;10497674;28;20055;-71
2021/11/24 03:25:38;;;;;;;23.02;20.90;;;;;;;4.92;91.92;100970.06;10480056;28;20401;-71
2021/11/24 03:30:39;;;;;;;21.90;19.83;;;;;;;5.16;90.66;100968.47;10497538;28;20037;-72
2021/11/24 03:35:42;;;;;;;21.20;19.20;;;;;;;4.76;92.72;100969.09;10497463;28;20086;-71
2021/11/24 03:40:44;;;;;;;25.42;22.92;;;;;;;4.62;94.62;100975.06;10497469;28;20044;-70
2021/11/24 03:45:46;;;;;;;22.90;20.83;;;;;;;4.69;94.35;100967.31;10479647;28;20036;-70
2021/11/24 03:50:47;;;;;;;22.65;20.73;;;;;;;4.79;93.82;100956.09;10498069;28;20041;-71
2021/11/24 03:55:49;;;;;;;21.98;19.98;;;;;;;4.93;92.17;100961.38;10479442;28;20132;-70
2021/11/24 04:00:51;;;;;;;22.70;20.50;;;;;;;4.93;92.57;100950.09;10478935;28;20057;-71
2021/11/24 04:05:54;;;;;;;24.23;22.17;;;;;;;4.99;91.15;100940.56;10497969;28;20124;-70
2021/11/24 04:10:56;;;;;;;22.65;20.58;;;;;;;4.84;92.14;100950.91;10497822;28;20408;-72
2021/11/24 04:15:58;;;;;;;23.15;20.95;;;;;;;5.03;91.32;100939.72;10496939;28;20044;-72
2021/11/24 04:21:00;;;;;;;24.08;21.77;;;;;;;5.05;90.50;100942.34;10497049;28;20043;-71
2021/11/24 04:26:02;;;;;;;21.77;20.02;;;;;;;4.86;91.11;100945.69;10478684;28;20391;-71
2021/11/24 04:31:07;;;;;;;26.38;21.08;;;;;;;4.95;90.52;100949.22;10497018;28;20051;-71
2021/11/24 04:36:08;;;;;;;22.80;20.65;;;;;;;4.97;90.31;100941.44;10478684;28;20059;-71
2021/11/24 04:41:10;;;;;;;22.00;20.05;;;;;;;4.74;91.14;100933.50;10496248;28;20472;-72
2021/11/24 04:46:14;;;;;;;22.02;19.88;;;;;;;4.90;90.84;100929.22;10461547;28;20054;-71
2021/11/24 04:51:16;;;;;;;22.77;20.77;;;;;;;4.77;91.10;100934.34;10501338;28;20090;-72
2021/11/24 04:56:18;;;;;;;23.00;20.83;;;;;;;4.79;91.30;100921.38;10504488;28;20041;-71
2021/11/24 05:01:20;;;;;;;22.08;19.83;;;;;;;4.74;91.70;100913.53;10485310;28;20517;-71
2021/11/24 05:06:23;;;;;;;21.70;19.80;;;;;;;4.88;90.92;100904.91;10504119;28;20044;-71
2021/11/24 05:11:26;;;;;;;21.30;19.50;;;;;;;4.85;90.80;100908.38;10503827;28;20048;-71
2021/11/24 05:16:31;;;;;;;21.58;19.42;;;;;;;4.75;91.21;100909.19;10503310;28;20090;-71
2021/11/24 05:21:37;;;;;;;20.80;18.95;;;;;;;4.86;90.96;100910.09;10503295;28;20060;-71
2021/11/24 05:26:39;;;;;;;22.43;19.70;;;;;;;4.79;90.95;100904.00;10485465;28;20101;-70
2021/11/24 05:31:41;;;;;;;23.20;20.23;;;;;;;4.75;90.64;100912.66;10485711;28;20040;-71
2021/11/24 05:36:43;;;;;;;22.95;20.15;;;;;;;4.53;91.79;100924.66;10502757;28;20124;-71
2021/11/24 05:41:45;;;;;;;22.08;20.00;;;;;;;4.44;92.87;100928.94;10503328;28;20060;-71
2021/11/24 05:47:00;;;;;;;26.75;22.27;;;;;;;4.35;93.58;100927.13;10484196;28;20036;-71
2021/11/24 05:52:03;;;;;;;22.77;20.42;;;;;;;4.58;92.88;100916.88;10502703;28;20048;-71
2021/11/24 05:57:06;;;;;;;22.42;20.17;;;;;;;4.78;92.06;100914.38;10484089;28;20048;-72
2021/11/24 06:02:08;;;;;;;23.20;21.08;;;;;;;4.87;90.52;100913.56;10502128;28;20083;-71
2021/11/24 06:07:10;;;;;;;24.45;20.50;;;;;;;4.97;90.62;100921.47;10501733;28;20041;-72
2021/11/24 06:12:12;;;;;;;20.48;18.77;;;;;;;5.16;89.43;100925.03;10500654;28;20072;-71
2021/11/24 06:17:14;;;;;;;20.23;18.52;;;;;;;5.11;89.48;100918.94;10483588;28;20032;-71
2021/11/24 06:22:16;;;;;;;20.73;19.02;;;;;;;4.78;90.67;100919.59;10500448;28;20045;-71
2021/11/24 06:27:17;;;;;;;21.10;19.33;;;;;;;5.04;89.04;100925.81;10482836;28;20135;-71
2021/11/24 06:32:19;;;;;;;22.08;20.08;;;;;;;4.93;89.72;100922.31;10482335;28;20044;-72
2021/11/24 06:37:21;;;;;;;23.42;21.13;;;;;;;4.99;89.60;100918.84;10500497;28;20056;-71
2021/11/24 06:42:23;;;;;;;21.23;19.23;;;;;;;4.76;90.32;100924.81;10482501;28;20502;-72
2021/11/24 06:47:25;;;;;;;23.67;21.38;;;;;;;4.67;91.28;100918.69;10499484;28;20082;-71
2021/11/24 06:52:27;;;;;;;23.80;20.50;;;;;;;4.79;91.51;100918.75;10480770;28;20053;-71
2021/11/24 06:57:29;;;;;;;22.77;20.48;;;;;;;4.95;90.68;100917.97;10499863;28;20397;-71
2021/11/24 07:02:30;;;;;;;22.15;19.88;;;;;;;5.01;90.58;100917.16;10481462;28;20529;-72
2021/11/24 07:07:32;;;;;;;21.70;19.55;;;;;;;4.85;90.95;100921.38;10499298;28;20125;-72
2021/11/24 07:12:35;;;;;;;24.77;22.25;;;;;;;5.05;91.47;100911.97;10499012;28;20097;-72
2021/11/24 07:17:36;;;;;;;26.52;21.45;;;;;;;5.08;91.39;100924.13;10499100;28;20075;-71
2021/11/24 07:22:38;;;;;;;31.90;23.27;;;;;;;4.90;92.40;100922.28;10499272;28;20127;-72
2021/11/24 07:27:41;;;;;;;32.42;23.40;;;;;;;4.95;93.08;100930.13;10498939;28;20036;-72
2021/11/24 07:32:43;;;;;;;29.73;22.65;;;;;;;4.90;92.96;100924.88;10498482;28;20052;-72
2021/11/24 07:37:45;;;;;;;31.83;22.65;;;;;;;4.77;94.09;100923.06;10499305;28;20037;-71
2021/11/24 07:42:47;;;;;;;33.13;22.52;;;;;;;4.80;94.19;100923.09;10480040;28;20555;-72
2021/11/24 07:47:49;;;;;;;30.10;23.02;;;;;;;5.11;93.21;100925.88;10498874;28;20049;-73
2021/11/24 07:52:51;;;;;;;30.77;21.25;;;;;;;4.93;93.94;100919.69;10518907;23;20566;-75
2021/11/24 07:57:53;;;;;;;27.92;20.70;;;;;;;5.00;94.48;100907.56;10530315;28;20036;-75
2021/11/24 08:02:55;;;;;;;28.17;21.40;;;;;;;5.16;92.87;100906.78;10551289;28;20071;-75
2021/11/24 08:07:57;;;;;;;29.02;21.63;;;;;;;5.43;90.81;100911.22;10533980;28;20051;-75
2021/11/24 08:12:58;;;;;;;32.00;23.48;;;;;;;5.27;91.88;100905.09;10551558;28;20063;-75
2021/11/24 08:18:00;;;;;;;25.42;21.67;;;;;;;5.35;92.90;100906.84;10553440;28;20134;-74
2021/11/24 08:23:03;;;;;;;23.20;20.73;;;;;;;5.44;92.12;100905.13;10553018;28;20048;-74
2021/11/24 08:28:04;;;;;;;27.15;21.17;;;;;;;5.50;91.30;100909.53;10523153;28;20086;-74
2021/11/24 08:33:06;;;;;;;22.20;19.73;;;;;;;5.53;91.56;100902.59;10538202;28;20105;-74
2021/11/24 08:38:09;;;;;;;22.70;20.45;;;;;;;5.68;91.52;100906.09;10555228;28;20033;-75
2021/11/24 08:43:10;;;;;;;29.48;20.48;;;;;;;5.79;90.56;100901.75;10536136;28;20048;-74
2021/11/24 08:48:12;;;;;;;30.20;21.17;;;;;;;5.87;89.96;100899.16;10518353;28;20044;-76
2021/11/24 08:53:14;;;;;;;23.40;20.30;;;;;;;5.96;88.46;100897.44;10535939;28;20185;-75
2021/11/24 08:58:16;;;;;;;20.83;18.50;;;;;;;5.76;90.10;100893.94;10534010;28;20481;-74
2021/11/24 09:03:19;;;;;;;24.77;21.55;;;;;;;5.91;89.56;100890.47;10549830;28;20051;-74
2021/11/24 09:08:21;;;;;;;37.20;20.98;;;;;;;6.21;88.07;100894.88;10551850;28;20036;-76
2021/11/24 09:13:23;;;;;;;25.23;22.50;;;;;;;5.98;88.59;100885.28;10533810;28;20051;-76
2021/11/24 09:18:25;;;;;;;17.23;15.73;;;;;;;5.80;89.83;100880.03;10514375;28;20044;-74
2021/11/24 09:23:28;;;;;;;14.40;13.10;;;;;;;5.85;89.81;100880.91;10528632;28;20089;-74
2021/11/24 09:28:35;;;;;;;16.75;15.02;;;;;;;6.18;88.08;100884.41;10529081;28;20036;-73
2021/11/24 09:33:39;;;;;;;15.02;13.15;;;;;;;6.50;84.52;100873.94;10528740;28;20064;-75
2021/11/24 09:38:41;;;;;;;15.98;14.57;;;;;;;6.45;84.56;100860.00;10546552;28;20470;-74
2021/11/24 09:43:48;;;;;;;13.38;12.02;;;;;;;6.48;84.25;100855.66;10546593;28;20111;-74
2021/11/24 09:48:51;;;;;;;13.55;12.43;;;;;;;6.64;82.58;100860.84;10527808;28;20040;-74
2021/11/24 09:53:53;;;;;;;12.55;11.43;;;;;;;6.72;81.93;100843.41;10528349;28;20556;-74
2021/11/24 09:58:55;;;;;;;13.35;12.35;;;;;;;6.55;84.10;100840.81;10545680;28;20048;-74
2021/11/24 10:03:58;;;;;;;12.93;11.82;;;;;;;6.81;82.07;100827.69;10511217;28;20044;-75
2021/11/24 10:09:01;;;;;;;12.27;11.27;;;;;;;6.57;82.44;100824.28;10545446;28;20373;-74
2021/11/24 10:14:04;;;;;;;13.30;12.18;;;;;;;6.71;83.01;100818.16;10526690;28;20054;-73
2021/11/24 10:19:13;;;;;;;13.40;12.30;;;;;;;6.94;80.16;100811.09;10525615;28;20135;-73
2021/11/24 10:24:36;;;;;;;13.82;12.63;;;;;;;6.98;79.56;100810.19;10543929;28;20043;-73
2021/11/24 10:29:40;;;;;;;12.90;11.77;;;;;;;6.94;79.80;100807.59;10546922;28;20143;-74
2021/11/24 10:34:49;;;;;;;13.35;12.25;;;;;;;7.12;78.88;100809.25;10549970;28;20047;-74
2021/11/24 10:40:01;;;;;;;12.40;11.38;;;;;;;6.96;79.71;100804.13;10554195;28;20071;-73
2021/11/24 10:45:05;;;;;;;12.80;11.70;;;;;;;6.96;79.68;100791.03;10547265;28;20046;-74
2021/11/24 10:50:17;;;;;;;11.70;10.80;;;;;;;6.98;79.53;100785.81;10566545;28;20050;-74
2021/11/24 10:55:36;;;;;;;14.70;12.60;;;;;;;6.82;80.75;100779.81;10584548;28;20069;-74
2021/11/24 11:00:44;;;;;;;12.25;11.25;;;;;;;6.79;81.63;100778.06;10566828;28;20087;-75
2021/11/24 11:06:06;;;;;;;12.43;11.43;;;;;;;6.79;82.95;100769.34;10547454;28;20040;-74
2021/11/24 11:11:08;;;;;;;12.93;11.82;;;;;;;6.98;81.41;100757.06;10524594;28;20036;-74
2021/11/24 11:16:10;;;;;;;11.45;10.55;;;;;;;7.04;79.61;100751.81;10544280;28;20389;-74
2021/11/24 11:21:13;;;;;;;9.45;8.65;;;;;;;7.17;77.73;100736.88;10542359;28;20040;-73
2021/11/24 11:26:20;;;;;;;9.43;8.63;;;;;;;7.05;78.98;100738.72;10524256;28;20131;-73
2021/11/24 11:31:27;;;;;;;10.85;9.85;;;;;;;7.01;79.88;100731.78;10541877;28;20059;-74
2021/11/24 11:36:29;;;;;;;11.30;10.43;;;;;;;7.01;80.10;100723.06;10542219;28;20040;-74
2021/11/24 11:41:34;;;;;;;8.40;7.72;;;;;;;7.27;77.91;100715.91;10543677;28;20047;-74
2021/11/24 11:46:57;;;;;;;8.30;7.70;;;;;;;6.91;80.98;100717.03;10543422;28;20404;-74
2021/11/24 11:52:09;;;;;;;8.85;8.25;;;;;;;6.66;80.68;100704.97;10543874;28;20044;-73
2021/11/24 11:57:17;;;;;;;7.55;6.95;;;;;;;6.70;80.97;100707.56;10525360;28;20370;-73
2021/11/24 12:02:24;;;;;;;9.45;8.60;;;;;;;6.78;81.61;100697.06;10531684;28;20083;-74
2021/11/24 12:07:26;;;;;;;10.13;9.23;;;;;;;6.65;81.21;100692.78;10552603;28;20443;-74
2021/11/24 12:12:36;;;;;;;7.85;7.10;;;;;;;6.96;79.41;100683.03;10550936;28;20044;-74
2021/11/24 12:18:00;;;;;;;8.63;8.02;;;;;;;6.92;80.64;100673.47;10551961;28;20040;-75
2021/11/24 12:23:03;;;;;;;10.77;8.85;;;;;;;6.98;79.26;100663.81;10534285;28;20048;-73
2021/11/24 12:28:09;;;;;;;11.48;10.57;;;;;;;7.13;78.78;100654.13;10554011;28;20487;-74
2021/11/24 12:33:15;;;;;;;17.25;15.85;;;;;;;6.67;81.85;100651.84;10537332;28;20428;-74
2021/11/24 12:38:19;;;;;;;17.90;16.50;;;;;;;6.48;83.87;100648.47;10534023;28;20055;-74
2021/11/24 12:43:25;;;;;;;17.60;16.10;;;;;;;6.78;83.66;100644.81;10551491;28;20062;-75
2021/11/24 12:48:33;;;;;;;17.17;15.77;;;;;;;6.81;83.65;100644.78;10520622;28;20452;-74
2021/11/24 12:53:40;;;;;;;18.77;17.13;;;;;;;6.85;83.89;100632.56;10553759;28;20446;-75
2021/11/24 12:58:59;;;;;;;19.17;17.42;;;;;;;6.98;82.75;100627.22;10553081;28;20042;-74
2021/11/24 13:04:16;;;;;;;17.25;15.52;;;;;;;6.58;84.76;100631.84;10552889;28;20060;-75
2021/11/24 13:09:22;;;;;;;18.05;16.15;;;;;;;6.44;85.13;100623.25;10516752;28;20070;-74
2021/11/24 13:14:35;;;;;;;17.35;15.77;;;;;;;6.43;85.66;100611.94;10552384;28;20044;-74
2021/11/24 13:19:53;;;;;;;15.70;14.45;;;;;;;6.49;85.62;100601.44;10532246;28;20047;-74
2021/11/24 13:25:16;;;;;;;16.40;15.00;;;;;;;6.56;84.96;100586.59;10548693;28;20060;-74
2021/11/24 13:30:23;;;;;;;16.10;14.63;;;;;;;6.73;83.97;100583.84;10531188;28;20048;-75
2021/11/24 13:35:27;;;;;;;15.93;14.52;;;;;;;6.57;84.93;100585.72;10530829;28;20058;-73
2021/11/24 13:40:32;;;;;;;15.60;14.20;;;;;;;6.31;86.28;100588.50;10549437;28;20024;-75
2021/11/24 13:45:39;;;;;;;15.75;14.35;;;;;;;6.68;84.74;100585.63;10531760;28;20036;-74
2021/11/24 13:50:53;;;;;;;14.60;13.20;;;;;;;6.46;85.57;100585.81;10555178;22;20556;-72
2021/11/24 13:56:14;;;;;;;15.38;13.63;;;;;;;6.25;85.60;100584.19;10502531;28;20055;-71
2021/11/24 14:01:18;;;;;;;15.55;14.10;;;;;;;6.60;84.98;100572.66;10483242;28;20051;-71
2021/11/24 14:06:37;;;;;;;14.40;13.20;;;;;;;6.45;85.27;100564.91;10500719;28;20052;-68
2021/11/24 14:11:38;;;;;;;14.52;13.30;;;;;;;6.03;86.76;100567.75;10482982;28;20098;-67
2021/11/24 14:16:40;;;;;;;13.18;11.98;;;;;;;6.18;86.72;100560.72;10501050;28;20378;-69
2021/11/24 14:21:56;;;;;;;14.27;12.90;;;;;;;6.10;86.24;100559.88;10501072;28;20098;-68
2021/11/24 14:26:59;;;;;;;12.65;11.52;;;;;;;6.42;84.27;100552.75;10485592;28;20037;-68
2021/11/24 14:32:04;;;;;;;12.25;11.13;;;;;;;6.24;84.29;100538.06;10502430;28;20051;-68
2021/11/24 14:37:06;;;;;;;14.73;12.63;;;;;;;6.07;85.53;100543.38;10502746;28;20043;-69
2021/11/24 14:42:08;;;;;;;12.93;11.57;;;;;;;6.14;85.63;100536.38;10483569;28;20048;-68
2021/11/24 14:47:11;;;;;;;12.13;11.13;;;;;;;6.28;83.75;100528.44;10503000;28;20047;-68
2021/11/24 14:52:14;;;;;;;10.63;9.73;;;;;;;6.02;85.96;100523.38;10502585;28;20090;-69
2021/11/24 14:57:17;;;;;;;11.98;10.77;;;;;;;5.98;85.80;100519.94;10502804;28;20036;-68
2021/11/24 15:02:19;;;;;;;12.93;11.85;;;;;;;6.04;84.92;100514.69;10503022;28;20458;-69
2021/11/24 15:07:22;;;;;;;12.30;11.20;;;;;;;5.97;84.95;100512.97;10500806;28;20389;-68
2021/11/24 15:12:24;;;;;;;11.20;10.30;;;;;;;6.04;84.23;100503.38;10500725;28;20041;-70
2021/11/24 15:17:40;;;;;;;12.68;11.68;;;;;;;5.90;85.32;100500.81;10502482;28;20074;-70
2021/11/24 15:23:07;;;;;;;12.65;11.48;;;;;;;6.01;84.20;100493.81;10507865;28;20120;-68
2021/11/24 15:28:21;;;;;;;11.43;10.52;;;;;;;5.99;83.61;100497.31;10507233;28;20056;-68
2021/11/24 15:33:26;;;;;;;13.50;10.63;;;;;;;5.90;84.17;100500.81;10506097;28;20490;-69
2021/11/24 15:38:28;;;;;;;12.88;11.77;;;;;;;5.76;84.95;100489.59;10485448;28;20512;-68
2021/11/24 15:43:30;;;;;;;11.65;10.75;;;;;;;5.68;85.75;100481.78;10502649;28;20083;-68
2021/11/24 15:48:32;;;;;;;12.23;11.13;;;;;;;5.73;84.78;100477.41;10501149;28;20049;-68
2021/11/24 15:53:35;;;;;;;10.65;9.75;;;;;;;5.78;84.87;100470.44;10485049;28;20092;-68
2021/11/24 15:58:38;;;;;;;11.38;10.27;;;;;;;5.97;84.17;100458.16;10501531;28;20051;-68
2021/11/24 16:03:40;;;;;;;12.32;11.32;;;;;;;5.79;84.86;100460.84;10500103;28;20417;-68
2021/11/24 16:08:42;;;;;;;12.80;11.82;;;;;;;5.91;84.42;100460.78;10499658;28;20105;-67
2021/11/24 16:13:45;;;;;;;10.98;10.07;;;;;;;5.82;85.07;100453.03;10482224;28;20044;-68
2021/11/24 16:18:50;;;;;;;11.50;10.50;;;;;;;5.76;85.67;100456.53;10464990;28;20048;-68
2021/11/24 16:23:52;;;;;;;11.60;10.70;;;;;;;6.04;83.91;100444.22;10481475;28;20040;-68
2021/11/24 16:28:54;;;;;;;11.15;10.27;;;;;;;6.11;82.75;100441.56;10499044;28;20060;-68
2021/11/24 16:33:56;;;;;;;10.75;9.95;;;;;;;5.72;84.71;100440.91;10481216;28;20144;-67
2021/11/24 16:38:58;;;;;;;10.77;9.88;;;;;;;5.69;85.21;100439.19;10499363;28;20032;-68
2021/11/24 16:44:01;;;;;;;10.38;9.23;;;;;;;5.88;84.21;100434.72;10479311;28;20048;-68
2021/11/24 16:49:04;;;;;;;9.68;8.88;;;;;;;5.78;84.09;100431.28;10504002;28;20057;-70
2021/11/24 16:54:06;;;;;;;10.15;9.35;;;;;;;5.98;83.02;100427.75;10504397;28;20124;-68
2021/11/24 16:59:08;;;;;;;8.55;7.85;;;;;;;5.72;83.99;100415.69;10505083;28;20047;-68
2021/11/24 17:04:10;;;;;;;8.90;8.10;;;;;;;6.09;80.43;100415.47;10504329;28;20046;-68
2021/11/24 17:09:13;;;;;;;10.18;9.27;;;;;;;5.81;82.88;100399.13;10504974;28;20051;-67
2021/11/24 17:14:16;;;;;;;10.23;9.43;;;;;;;6.04;80.59;100397.25;10503992;28;20037;-68
2021/11/24 17:19:17;;;;;;;11.25;10.30;;;;;;;6.08;79.53;100385.03;10504320;28;20037;-69
2021/11/24 17:24:21;;;;;;;11.95;10.95;;;;;;;6.03;79.33;100386.81;10504403;28;20056;-69
2021/11/24 17:29:31;;;;;;;13.88;12.68;;;;;;;6.06;70.93;100381.56;10504099;28;20055;-68
2021/11/24 17:34:33;;;;;;;15.65;14.18;;;;;;;5.98;71.26;100373.81;10503239;28;20048;-69
2021/11/24 17:39:35;;;;;;;15.70;14.60;;;;;;;5.86;68.95;100371.25;10503159;28;20044;-68
2021/11/24 17:44:37;;;;;;;17.95;16.55;;;;;;;5.86;67.87;100365.16;10502642;28;20044;-67
2021/11/24 17:49:38;;;;;;;15.75;14.55;;;;;;;5.77;67.14;100363.50;10502358;28;20048;-68
2021/11/24 17:54:40;;;;;;;12.68;11.88;;;;;;;5.82;64.43;100357.34;10503046;28;20036;-68
2021/11/24 17:59:43;;;;;;;13.60;12.60;;;;;;;5.72;65.20;100352.22;10502878;28;20437;-68
2021/11/24 18:04:45;;;;;;;12.15;11.15;;;;;;;5.89;63.26;100350.38;10503047;28;20047;-68
2021/11/24 18:09:47;;;;;;;13.98;12.88;;;;;;;5.74;63.51;100340.03;10502658;28;20123;-68
2021/11/24 18:14:48;;;;;;;13.48;12.48;;;;;;;5.66;64.46;100326.16;10501770;28;20482;-68
2021/11/24 18:19:50;;;;;;;14.30;13.20;;;;;;;5.50;66.25;100328.91;10501458;28;20115;-68
2021/11/24 18:24:52;;;;;;;17.42;16.13;;;;;;;5.68;63.51;100321.81;10502290;28;20050;-69
2021/11/24 18:29:55;;;;;;;15.95;14.85;;;;;;;5.75;62.87;100310.44;10483819;28;20121;-69
2021/11/24 18:34:57;;;;;;;16.52;15.32;;;;;;;5.37;64.64;100308.13;10501559;28;20119;-68
2021/11/24 18:40:00;;;;;;;17.02;15.73;;;;;;;5.62;64.50;100298.38;10500225;28;20044;-68
2021/11/24 18:45:06;;;;;;;16.80;15.40;;;;;;;5.67;65.03;100292.28;10500603;28;20060;-69
2021/11/24 18:50:09;;;;;;;19.67;18.23;;;;;;;5.73;64.01;100283.53;10501536;28;20405;-67
2021/11/24 18:55:11;;;;;;;19.00;17.60;;;;;;;5.39;64.98;100270.72;10500475;28;20068;-67
2021/11/24 19:00:15;;;;;;;18.20;16.80;;;;;;;5.42;64.13;100265.50;10500313;28;20115;-68
2021/11/24 19:05:18;;;;;;;20.48;19.00;;;;;;;5.29;65.57;100258.66;10500113;28;20050;-68
2021/11/24 19:10:20;;;;;;;18.80;17.50;;;;;;;5.65;63.82;100267.06;10498897;28;20490;-68
2021/11/24 19:15:22;;;;;;;18.20;16.90;;;;;;;5.48;64.85;100260.22;10482822;28;20068;-68
2021/11/24 19:20:27;;;;;;;18.98;17.38;;;;;;;5.54;64.49;100252.38;10500577;28;20123;-68
2021/11/24 19:25:29;;;;;;;19.20;17.85;;;;;;;5.54;64.41;100247.16;10500951;28;20060;-68
2021/11/24 19:30:31;;;;;;;20.00;18.50;;;;;;;5.44;65.41;100240.28;10500753;28;20115;-68
2021/11/24 19:35:33;;;;;;;15.68;14.48;;;;;;;5.26;64.67;100236.06;10501349;28;20489;-68
2021/11/24 19:40:35;;;;;;;14.90;13.88;;;;;;;5.30;63.71;100236.91;10500163;28;20051;-67
2021/11/24 19:45:58;;;;;;;14.70;13.48;;;;;;;5.22;64.23;100221.34;10480239;28;20052;-68
2021/11/24 19:51:32;;;;;;;16.42;14.88;;;;;;;5.01;65.09;100224.97;10499183;28;20037;-68
2021/11/24 19:56:34;;;;;;;15.60;14.30;;;;;;;4.80;65.82;100212.91;10379183;28;20514;-71
2021/11/24 20:01:36;;;;;;;15.75;14.55;;;;;;;5.18;65.08;100197.91;10379768;28;20073;-70
2021/11/24 20:06:38;;;;;;;16.35;15.05;;;;;;;5.05;65.29;100190.19;10379727;28;20101;-70
2021/11/24 20:11:40;;;;;;;17.63;15.60;;;;;;;4.89;65.72;100178.13;10361691;28;20042;-70
2021/11/24 20:16:50;;;;;;;15.75;14.20;;;;;;;4.88;65.77;100178.16;10361922;28;20042;-70
2021/11/24 20:21:53;;;;;;;18.35;16.90;;;;;;;4.59;67.07;100184.38;10385156;28;20042;-70
2021/11/24 20:26:55;;;;;;;19.30;17.65;;;;;;;4.47;67.99;100171.41;10389706;28;20096;-71
2021/11/24 20:31:58;;;;;;;19.80;18.20;;;;;;;4.60;67.39;100164.41;10369375;28;20042;-71
2021/11/24 20:37:00;;;;;;;19.00;17.60;;;;;;;4.16;68.73;100162.88;10388322;28;20163;-70
2021/11/24 20:42:02;;;;;;;18.60;17.00;;;;;;;4.38;67.78;100161.03;10385836;28;20052;-71
2021/11/24 20:47:04;;;;;;;18.25;16.95;;;;;;;4.11;68.26;100162.03;10384873;28;20037;-71
2021/11/24 20:52:06;;;;;;;16.27;15.10;;;;;;;4.08;68.55;100151.66;10385342;28;20404;-71
2021/11/24 20:57:08;;;;;;;18.73;16.20;;;;;;;4.01;68.37;100150.78;10386138;28;20380;-72
2021/11/24 21:02:11;;;;;;;17.60;16.33;;;;;;;3.92;68.52;100138.69;10385628;28;20038;-70
2021/11/24 21:07:17;;;;;;;15.30;14.20;;;;;;;3.60;68.48;100141.38;10385596;28;20488;-71
2021/11/24 21:12:19;;;;;;;15.88;14.68;;;;;;;3.76;68.48;100134.38;10385848;28;20045;-70
2021/11/24 21:17:21;;;;;;;16.10;14.90;;;;;;;3.43;69.47;100135.31;10387411;28;20069;-70
2021/11/24 21:22:23;;;;;;;16.23;14.98;;;;;;;3.40;69.53;100138.78;10385667;28;20048;-71
2021/11/24 21:27:25;;;;;;;16.45;15.25;;;;;;;3.47;69.18;100118.88;10368545;28;20045;-71
2021/11/24 21:32:27;;;;;;;16.92;15.30;;;;;;;3.35;69.90;100117.13;10384026;28;20050;-70
2021/11/24 21:37:34;;;;;;;16.65;15.43;;;;;;;3.50;69.25;100106.75;10388866;28;20042;-70
2021/11/24 21:42:39;;;;;;;16.45;15.35;;;;;;;3.26;69.85;100107.63;10367285;28;20049;-70
2021/11/24 21:47:41;;;;;;;17.50;16.20;;;;;;;3.29;69.50;100104.16;10382703;28;20030;-71
2021/11/24 21:52:43;;;;;;;17.10;15.80;;;;;;;3.11;70.34;100102.44;10382229;28;20069;-69
2021/11/24 21:57:46;;;;;;;19.00;17.27;;;;;;;2.88;71.17;100102.47;10381132;28;20050;-70
2021/11/24 22:02:49;;;;;;;19.80;17.88;;;;;;;2.85;71.63;100105.03;10380749;28;20061;-70
2021/11/24 22:13:06;;;;;;;19.90;18.27;;;;;;;2.35;73.51;100074.69;10383017;28;20104;-70
2021/11/24 22:18:08;;;;;;;19.50;18.08;;;;;;;2.10;74.34;100067.72;10382988;28;20121;-70
2021/11/24 22:23:10;;;;;;;19.50;18.00;;;;;;;1.93;75.35;100063.31;10381407;28;20052;-70
2021/11/24 22:28:12;;;;;;;20.10;18.50;;;;;;;1.90;74.69;100054.66;10362529;28;20555;-70
2021/11/24 22:33:14;;;;;;;20.17;18.67;;;;;;;1.79;75.81;100041.69;10379453;28;20116;-71
2021/11/24 22:38:16;;;;;;;19.73;18.02;;;;;;;2.06;75.00;100038.31;10361805;28;20511;-70
2021/11/24 22:43:19;;;;;;;23.75;18.48;;;;;;;1.85;75.66;100033.06;10360621;28;20104;-70
2021/11/24 22:48:21;;;;;;;19.75;17.98;;;;;;;1.55;76.07;100026.91;10360754;28;20041;-70
2021/11/24 22:53:23;;;;;;;22.00;20.02;;;;;;;1.49;76.62;100016.50;10361462;28;20053;-71
2021/11/24 22:58:25;;;;;;;20.25;18.45;;;;;;;1.16;77.71;100012.88;10377601;28;20042;-71
2021/11/24 23:03:27;;;;;;;22.13;20.23;;;;;;;1.54;75.89;99999.25;10378114;28;20073;-70
2021/11/24 23:08:29;;;;;;;23.60;21.48;;;;;;;1.40;75.97;99996.59;10380215;28;20515;-71
2021/11/24 23:13:30;;;;;;;21.63;19.60;;;;;;;0.85;78.34;99983.34;10360184;28;20084;-71